Huvudsida
METAR-TAF:

METAR-TAF

Flygplatser :

Al-`Ula, Saudiarabien

latitud: 26-29-00N, longitud: 038-07-01E, höjd: 624 m

Aktuellt väderrapport

Denna rapport gjordes för 17 minuter sedan, klockan 08:00 UTC
Vind 4 kt från sydväst
Temperatur 22°C
Fuktighet 29%
Tryck 1019 hPa
Sikt: 7000 m

METAR: OEAO 250800Z 22004KT 7000 NSC 22/03 Q1019

Tid: 11:17 (08:17 UTC)

Väderprognos

Denna rapport gjordes för 9 timmar och 17 minuter sedan, klockan 23:00 UTC
Prognos gäller från 25 kl. 00 UTC till 26 kl. 06 UTC
Vind 3 kt varierande vindriktning
Sikt 10 km eller mer
Inga moln under 1 500 m eller inga cumulonimbus
Blir
från 25 kl. 06 UTC till 25 kl. 08 UTC
Vind 12 kt från sydväst

TAF: OEAO 242300Z 2500/2606 VRB03KT CAVOK BECMG 2506/2508 23012KT

Aktuella väderrapporter och prognoser från 4000 flygplatser (METAR- och TAF-rapporter).

De tillgängliga stationerna syns som gula och röda prickar på kartan.

För musen över prickarna för att se namnen på stationerna.

Klicka sedan för att få väderrapporter och prognoser.

För att ändra kartan: Klicka på de gröna knapparna med ett svart kors på för att zooma in; den gröna knappen med ett streck på för att zooma ut; eller på de gröna pilarna för angränsande kartor.


METAR-TAF: